地図

経路データ

SID SEASON NUMBER BASIN SUBBASIN NAME ISO_TIME NATURE LAT LON WMO_WIND WMO_PRES WMO_AGENCY TRACK_TYPE DIST2LAND LANDFALL IFLAG USA_AGENCY USA_ATCF_ID USA_LAT USA_LON USA_RECORD USA_STATUS USA_WIND USA_PRES USA_SSHS USA_R34_NE USA_R34_SE USA_R34_SW USA_R34_NW USA_R50_NE USA_R50_SE USA_R50_SW USA_R50_NW USA_R64_NE USA_R64_SE USA_R64_SW USA_R64_NW USA_POCI USA_ROCI USA_RMW USA_EYE TOKYO_LAT TOKYO_LON TOKYO_GRADE TOKYO_WIND TOKYO_PRES TOKYO_R50_DIR TOKYO_R50_LONG TOKYO_R50_SHORT TOKYO_R30_DIR TOKYO_R30_LONG TOKYO_R30_SHORT TOKYO_LAND CMA_LAT CMA_LON CMA_CAT CMA_WIND CMA_PRES HKO_LAT HKO_LON HKO_CAT HKO_WIND HKO_PRES NEWDELHI_LAT NEWDELHI_LON NEWDELHI_GRADE NEWDELHI_WIND NEWDELHI_PRES NEWDELHI_CI NEWDELHI_DP NEWDELHI_POCI REUNION_LAT REUNION_LON REUNION_TYPE REUNION_WIND REUNION_PRES REUNION_TNUM REUNION_CI REUNION_RMW REUNION_R34_NE REUNION_R34_SE REUNION_R34_SW REUNION_R34_NW REUNION_R50_NE REUNION_R50_SE REUNION_R50_SW REUNION_R50_NW REUNION_R64_NE REUNION_R64_SE REUNION_R64_SW REUNION_R64_NW BOM_LAT BOM_LON BOM_TYPE BOM_WIND BOM_PRES BOM_TNUM BOM_CI BOM_RMW BOM_R34_NE BOM_R34_SE BOM_R34_SW BOM_R34_NW BOM_R50_NE BOM_R50_SE BOM_R50_SW BOM_R50_NW BOM_R64_NE BOM_R64_SE BOM_R64_SW BOM_R64_NW BOM_ROCI BOM_POCI BOM_EYE BOM_POS_METHOD BOM_PRES_METHOD NADI_LAT NADI_LON NADI_CAT NADI_WIND NADI_PRES WELLINGTON_LAT WELLINGTON_LON WELLINGTON_WIND WELLINGTON_PRES DS824_LAT DS824_LON DS824_STAGE DS824_WIND DS824_PRES TD9636_LAT TD9636_LON TD9636_STAGE TD9636_WIND TD9636_PRES TD9635_LAT TD9635_LON TD9635_WIND TD9635_PRES TD9635_ROCI NEUMANN_LAT NEUMANN_LON NEUMANN_CLASS NEUMANN_WIND NEUMANN_PRES MLC_LAT MLC_LON MLC_CLASS MLC_WIND MLC_PRES USA_GUST BOM_GUST BOM_GUST_PER REUNION_GUST REUNION_GUST_PER USA_SEAHGT USA_SEARAD_NE USA_SEARAD_SE USA_SEARAD_SW USA_SEARAD_NW STORM_SPEED STORM_DIR
1918001S11070 1918 1 SI MM NOT_NAMED 1918-01-01 06:00:00 NR -10.8000 69.9000 reunion main 1670 1670 _____O________ -1 -10.8000 69.9000 99 9.90000 1 257
1918001S11070 1918 1 SI MM NOT_NAMED 1918-01-01 09:00:00 NR -10.8087 69.8692 main 1670 1661 _____P________ -1 -10.8087 69.8692 99 1 249
1918001S11070 1918 1 SI MM NOT_NAMED 1918-01-01 12:00:00 NR -10.8249 69.8353 main 1661 1654 _____P________ -1 -10.8249 69.8353 99 1 233
1918001S11070 1918 1 SI MM NOT_NAMED 1918-01-01 15:00:00 NR -10.8561 69.7955 main 1654 1646 _____P________ -1 -10.8561 69.7955 99 1 227
1918001S11070 1918 1 SI MM NOT_NAMED 1918-01-01 18:00:00 NR -10.9098 69.7466 main 1646 1639 _____P________ -1 -10.9098 69.7466 99 2 217
1918001S11070 1918 1 SI MM NOT_NAMED 1918-01-01 21:00:00 NR -10.9935 69.6857 main 1639 1623 _____P________ -1 -10.9935 69.6857 99 2 214
1918001S11070 1918 1 SI MM NOT_NAMED 1918-01-02 00:00:00 NR -11.1148 69.6097 main 1623 1600 _____P________ -1 -11.1148 69.6097 99 3 210
1918001S11070 1918 1 SI MM NOT_NAMED 1918-01-02 03:00:00 NR -11.2811 69.5155 main 1600 1578 _____P________ -1 -11.2811 69.5155 99 4 208
1918001S11070 1918 1 SI MM NOT_NAMED 1918-01-02 06:00:00 NR -11.5000 69.4000 reunion main 1578 1548 _____O________ -1 -11.5000 69.4000 99 9.90000 6 207
1918001S11070 1918 1 SI MM NOT_NAMED 1918-01-02 09:00:00 NR -11.7761 69.2612 main 1548 1510 _____P________ -1 -11.7761 69.2612 99 7 206
1918001S11070 1918 1 SI MM NOT_NAMED 1918-01-02 12:00:00 NR -12.1028 69.1015 main 1510 1473 _____P________ -1 -12.1028 69.1015 99 8 205
1918001S11070 1918 1 SI MM NOT_NAMED 1918-01-02 15:00:00 NR -12.4708 68.9243 main 1466 1428 _____P________ -1 -12.4708 68.9243 99 9 205
1918001S11070 1918 1 SI MM NOT_NAMED 1918-01-02 18:00:00 NR -12.8706 68.7331 main 1422 1378 _____P________ -1 -12.8706 68.7331 99 9 205
1918001S11070 1918 1 SI MM NOT_NAMED 1918-01-02 21:00:00 NR -13.2927 68.5315 main 1378 1335 _____P________ -1 -13.2927 68.5315 99 10 205
1918001S11070 1918 1 SI MM NOT_NAMED 1918-01-03 00:00:00 NR -13.7279 68.3231 main 1335 1292 _____P________ -1 -13.7279 68.3231 99 10 205
1918001S11070 1918 1 SI MM NOT_NAMED 1918-01-03 03:00:00 NR -14.1668 68.1113 main 1286 1244 _____P________ -1 -14.1668 68.1113 99 10 205
1918001S11070 1918 1 SI MM NOT_NAMED 1918-01-03 06:00:00 NR -14.6000 67.9000 reunion main 1244 1203 _____O________ -1 -14.6000 67.9000 99 9.90000 9 206
1918001S11070 1918 1 SI MM NOT_NAMED 1918-01-03 09:00:00 NR -14.9836 67.7023 main 1203 1168 _____P________ -1 -14.9836 67.7023 99 9 207
1918001S11070 1918 1 SI MM NOT_NAMED 1918-01-03 12:00:00 NR -15.3668 67.5024 main 1163 1128 _____P________ -1 -15.3668 67.5024 99 9 207
1918001S11070 1918 1 SI MM NOT_NAMED 1918-01-03 15:00:00 NR -15.7503 67.3010 main 1123 1088 _____P________ -1 -15.7503 67.3010 99 9 207
1918001S11070 1918 1 SI MM NOT_NAMED 1918-01-03 18:00:00 NR -16.1349 67.0989 main 1088 1049 _____P________ -1 -16.1349 67.0989 99 9 207
1918001S11070 1918 1 SI MM NOT_NAMED 1918-01-03 21:00:00 NR -16.5214 66.8969 main 1049 1011 _____P________ -1 -16.5214 66.8969 99 9 206
1918001S11070 1918 1 SI MM NOT_NAMED 1918-01-04 00:00:00 NR -16.9106 66.6959 main 1011 975 _____P________ -1 -16.9106 66.6959 99 9 206
1918001S11070 1918 1 SI MM NOT_NAMED 1918-01-04 03:00:00 NR -17.3032 66.4967 main 975 939 _____P________ -1 -17.3032 66.4967 99 9 206
1918001S11070 1918 1 SI MM NOT_NAMED 1918-01-04 06:00:00 NR -17.7000 66.3000 reunion main 939 905 _____O________ -1 -17.7000 66.3000 99 9.90000 9 206
1918001S11070 1918 1 SI MM NOT_NAMED 1918-01-04 09:00:00 NR -18.0784 66.0995 main 905 875 _____P________ -1 -18.0784 66.0995 99 9 207
1918001S11070 1918 1 SI MM NOT_NAMED 1918-01-04 12:00:00 NR -18.4580 65.9003 main 872 844 _____P________ -1 -18.4580 65.9003 99 9 206
1918001S11070 1918 1 SI MM NOT_NAMED 1918-01-04 15:00:00 NR -18.8431 65.7036 main 844 815 _____P________ -1 -18.8431 65.7036 99 9 205
1918001S11070 1918 1 SI MM NOT_NAMED 1918-01-04 18:00:00 NR -19.2379 65.5107 main 815 787 _____P________ -1 -19.2379 65.5107 99 9 204
1918001S11070 1918 1 SI MM NOT_NAMED 1918-01-04 21:00:00 NR -19.6467 65.3226 main 787 773 _____P________ -1 -19.6467 65.3226 99 9 203
1918001S11070 1918 1 SI MM NOT_NAMED 1918-01-05 00:00:00 NR -20.0738 65.1407 main 761 750 _____P________ -1 -20.0738 65.1407 99 9 201
1918001S11070 1918 1 SI MM NOT_NAMED 1918-01-05 03:00:00 NR -20.5234 64.9661 main 750 731 _____P________ -1 -20.5234 64.9661 99 10 199
1918001S11070 1918 1 SI MM NOT_NAMED 1918-01-05 06:00:00 NR -21.0000 64.8000 reunion main 732 718 _____O________ -1 -21.0000 64.8000 99 9.90000 11 197
1918001S11070 1918 1 SI MM NOT_NAMED 1918-01-05 09:00:00 NR -21.5792 64.6242 main 720 715 _____P________ -1 -21.5792 64.6242 99 12 195
1918001S11070 1918 1 SI MM NOT_NAMED 1918-01-05 12:00:00 NR -22.1941 64.4542 main 725 715 _____P________ -1 -22.1941 64.4542 99 13 194
1918001S11070 1918 1 SI MM NOT_NAMED 1918-01-05 15:00:00 NR -22.8262 64.2924 main 727 726 _____P________ -1 -22.8262 64.2924 99 13 193
1918001S11070 1918 1 SI MM NOT_NAMED 1918-01-05 18:00:00 NR -23.4571 64.1414 main 739 739 _____P________ -1 -23.4571 64.1414 99 13 192
1918001S11070 1918 1 SI MM NOT_NAMED 1918-01-05 21:00:00 NR -24.0684 64.0038 main 762 762 _____P________ -1 -24.0684 64.0038 99 12 191
1918001S11070 1918 1 SI MM NOT_NAMED 1918-01-06 00:00:00 NR -24.6416 63.8824 main 784 784 _____P________ -1 -24.6416 63.8824 99 11 191
1918001S11070 1918 1 SI MM NOT_NAMED 1918-01-06 03:00:00 NR -25.1583 63.7802 main 816 815 _____P________ -1 -25.1583 63.7802 99 10 190
1918001S11070 1918 1 SI MM NOT_NAMED 1918-01-06 06:00:00 NR -25.6000 63.7000 reunion main 837 837 _____O________ -1 -25.6000 63.7000 99 9.90000 8 189
1918001S11070 1918 1 SI MM NOT_NAMED 1918-01-06 09:00:00 NR -25.9535 63.6440 main 860 860 _____P________ -1 -25.9535 63.6440 99 6 187
1918001S11070 1918 1 SI MM NOT_NAMED 1918-01-06 12:00:00 NR -26.2256 63.6102 main 876 876 _____P________ -1 -26.2256 63.6102 99 5 185
1918001S11070 1918 1 SI MM NOT_NAMED 1918-01-06 15:00:00 NR -26.4278 63.5956 main 892 892 _____P________ -1 -26.4278 63.5956 99 3 184
1918001S11070 1918 1 SI MM NOT_NAMED 1918-01-06 18:00:00 NR -26.5719 63.5970 main 908 908 _____P________ -1 -26.5719 63.5970 99 2 0
1918001S11070 1918 1 SI MM NOT_NAMED 1918-01-06 21:00:00 NR -26.6696 63.6114 main 916 916 _____P________ -1 -26.6696 63.6114 99 2 170
1918001S11070 1918 1 SI MM NOT_NAMED 1918-01-07 00:00:00 NR -26.7324 63.6356 main 916 916 _____P________ -1 -26.7324 63.6356 99 1 150
1918001S11070 1918 1 SI MM NOT_NAMED 1918-01-07 03:00:00 NR -26.7720 63.6662 main 931 931 _____P________ -1 -26.7720 63.6662 99 1 140
1918001S11070 1918 1 SI MM NOT_NAMED 1918-01-07 06:00:00 NR -26.8000 63.7000 reunion main 931 _____O________ -1 -26.8000 63.7000 99 9.90000 1 135

IBTrACS Databaseについて

本データベースは、米国NOAAが公開する1842年以降の世界の熱帯低気圧のベストトラックデータアーカイブInternational Best Track Archive for Climate Stewardship (IBTrACS)を、ウェブで閲覧しやすい形式に変換したものです。

最終更新日:2021-10-27